createdAt,value
2019-02-19T00:00:53.876Z,5.83
2019-02-19T00:03:21.600Z,7.20
2019-02-19T00:05:51.293Z,7.70
2019-02-19T00:08:19.386Z,8.03
2019-02-19T00:10:47.041Z,7.13
2019-02-19T00:13:14.986Z,7.57
2019-02-19T00:15:42.937Z,6.57
2019-02-19T00:18:11.184Z,9.00
2019-02-19T00:20:39.146Z,7.57
2019-02-19T00:23:06.824Z,5.80
2019-02-19T00:25:34.473Z,8.60
2019-02-19T00:28:02.410Z,6.23
2019-02-19T00:30:30.718Z,6.03
2019-02-19T00:32:59.093Z,7.90
2019-02-19T00:35:27.369Z,5.23
2019-02-19T00:37:55.693Z,6.97
2019-02-19T00:40:23.345Z,6.30
2019-02-19T00:42:51.286Z,5.70
2019-02-19T00:45:19.557Z,11.00
2019-02-19T00:47:47.910Z,7.03
2019-02-19T00:50:15.568Z,5.93
2019-02-19T00:52:43.508Z,5.57
2019-02-19T00:55:11.994Z,11.23
2019-02-19T00:57:40.159Z,6.67
2019-02-19T01:00:08.815Z,6.77
2019-02-19T01:02:36.912Z,5.53
2019-02-19T01:05:05.009Z,7.10
2019-02-19T01:07:33.429Z,6.80
2019-02-19T01:10:01.377Z,6.17
2019-02-19T01:12:29.579Z,6.97
2019-02-19T01:14:57.233Z,5.70
2019-02-19T01:17:25.205Z,8.17
2019-02-19T01:19:52.868Z,7.83
2019-02-19T01:22:21.053Z,7.10
2019-02-19T01:24:49.389Z,7.10
2019-02-19T01:27:17.321Z,6.63
2019-02-19T01:29:45.312Z,9.07
2019-02-19T01:32:13.227Z,5.80
2019-02-19T01:34:40.893Z,6.60
2019-02-19T01:37:08.585Z,7.70
2019-02-19T01:39:36.829Z,5.83
2019-02-19T01:42:04.868Z,6.00
2019-02-19T01:44:33.020Z,7.00
2019-02-19T01:47:01.337Z,5.60
2019-02-19T01:49:29.698Z,6.13
2019-02-19T01:51:57.698Z,6.47
2019-02-19T01:54:25.864Z,7.97
2019-02-19T01:56:53.810Z,7.27
2019-02-19T01:59:21.798Z,5.60
2019-02-19T02:01:49.823Z,5.57
2019-02-19T02:04:17.806Z,5.13
2019-02-19T02:06:45.794Z,13.03
2019-02-19T02:09:14.111Z,5.00
2019-02-19T02:11:42.203Z,6.70
2019-02-19T02:14:09.853Z,8.97
2019-02-19T02:16:37.585Z,6.03
2019-02-19T02:19:05.235Z,5.13
2019-02-19T02:21:33.605Z,6.77
2019-02-19T02:24:01.517Z,5.33
2019-02-19T02:26:29.537Z,6.37
2019-02-19T02:28:57.496Z,5.40
2019-02-19T02:31:26.019Z,5.40
2019-02-19T02:33:53.960Z,6.80
2019-02-19T02:36:21.608Z,5.30
2019-02-19T02:38:49.275Z,5.17
2019-02-19T02:41:17.598Z,4.63
2019-02-19T02:43:45.337Z,5.53
2019-02-19T02:46:13.629Z,4.63
2019-02-19T02:48:41.558Z,4.27
2019-02-19T02:51:09.828Z,5.23
2019-02-19T02:53:38.126Z,7.10
2019-02-19T02:56:06.411Z,6.40
2019-02-19T02:58:35.010Z,6.27
2019-02-19T03:01:03.055Z,7.00
2019-02-19T03:03:31.101Z,4.90
2019-02-19T03:06:05.454Z,6.70
2019-02-19T03:08:33.661Z,6.97
2019-02-19T03:11:01.738Z,6.50
2019-02-19T03:13:29.658Z,6.10
2019-02-19T03:16:02.367Z,5.57
2019-02-19T03:18:26.917Z,6.60
2019-02-19T03:20:54.895Z,7.03
2019-02-19T03:23:22.898Z,7.43
2019-02-19T03:25:50.561Z,4.93
2019-02-19T03:28:18.629Z,5.37
2019-02-19T03:30:46.324Z,5.80
2019-02-19T03:33:14.312Z,6.20
2019-02-19T03:35:42.952Z,7.23
2019-02-19T03:38:11.122Z,10.07
2019-02-19T03:40:39.229Z,6.20
2019-02-19T03:43:08.087Z,6.07
2019-02-19T03:45:36.162Z,8.80
2019-02-19T03:48:04.170Z,6.50
2019-02-19T03:50:31.829Z,7.70
2019-02-19T03:53:00.361Z,6.03
2019-02-19T03:55:28.626Z,8.57
2019-02-19T03:57:56.592Z,7.50
2019-02-19T04:00:24.306Z,7.53
2019-02-19T04:02:52.393Z,11.00
2019-02-19T04:05:20.674Z,13.67
2019-02-19T04:07:48.653Z,14.20
2019-02-19T04:10:16.587Z,15.20
2019-02-19T04:12:44.638Z,12.23
2019-02-19T04:15:12.601Z,26.20
2019-02-19T04:17:40.577Z,21.50
2019-02-19T04:20:08.848Z,19.17
2019-02-19T04:22:36.626Z,19.73
2019-02-19T04:25:04.446Z,18.00
2019-02-19T04:27:32.393Z,24.40
2019-02-19T04:30:00.405Z,23.73
2019-02-19T04:32:28.411Z,22.93
2019-02-19T04:34:56.385Z,24.27
2019-02-19T04:37:24.347Z,24.60
2019-02-19T04:39:52.032Z,27.13
2019-02-19T04:42:19.738Z,26.30
2019-02-19T04:44:47.799Z,34.73
2019-02-19T04:47:15.593Z,25.83
2019-02-19T04:49:43.541Z,25.90
2019-02-19T04:52:11.852Z,29.40
2019-02-19T04:54:39.534Z,34.00
2019-02-19T04:57:07.195Z,30.73
2019-02-19T04:59:35.770Z,28.77
2019-02-19T05:02:03.976Z,29.97
2019-02-19T05:04:32.177Z,28.87
2019-02-19T05:07:00.214Z,28.17
2019-02-19T05:09:28.562Z,29.13
2019-02-19T05:11:56.459Z,31.83
2019-02-19T05:14:24.742Z,30.40
2019-02-19T05:16:52.760Z,27.30
2019-02-19T05:19:20.418Z,31.73
2019-02-19T05:21:48.349Z,28.77
2019-02-19T05:24:16.305Z,28.33
2019-02-19T05:26:44.230Z,29.47
2019-02-19T05:29:11.885Z,34.23
2019-02-19T05:31:39.567Z,29.67
2019-02-19T05:34:07.526Z,30.40
2019-02-19T05:36:35.214Z,31.87
2019-02-19T05:39:04.482Z,34.00
2019-02-19T05:41:32.510Z,29.73
2019-02-19T05:44:00.513Z,28.03
2019-02-19T05:46:28.873Z,30.33
2019-02-19T05:48:56.806Z,29.97
2019-02-19T05:51:24.472Z,22.20
2019-02-19T05:53:52.644Z,25.40
2019-02-19T05:56:20.317Z,29.17
2019-02-19T05:58:47.989Z,29.90
2019-02-19T06:01:16.086Z,27.60
2019-02-19T06:03:44.033Z,19.27
2019-02-19T06:06:11.992Z,22.03
2019-02-19T06:08:39.718Z,24.47
2019-02-19T06:11:07.689Z,23.50
2019-02-19T06:13:36.275Z,19.70
2019-02-19T06:16:04.839Z,22.00
2019-02-19T06:18:32.874Z,23.83
2019-02-19T06:21:00.966Z,20.47
2019-02-19T06:23:29.311Z,21.80
2019-02-19T06:25:57.317Z,25.80
2019-02-19T06:28:25.601Z,29.53
2019-02-19T06:30:53.575Z,23.43
2019-02-19T06:33:21.601Z,26.00
2019-02-19T06:35:49.522Z,30.73
2019-02-19T06:38:17.460Z,33.50
2019-02-19T06:40:45.745Z,30.10
2019-02-19T06:43:14.375Z,29.53
2019-02-19T06:45:42.382Z,31.60
2019-02-19T06:48:10.382Z,35.40
2019-02-19T06:50:38.495Z,30.10
2019-02-19T06:53:06.430Z,26.20
2019-02-19T06:55:34.467Z,29.37
2019-02-19T06:58:02.777Z,28.83
2019-02-19T07:00:31.021Z,32.40
2019-02-19T07:03:15.173Z,32.37
2019-02-19T07:05:43.391Z,35.97
2019-02-19T07:08:11.346Z,31.87
2019-02-19T07:10:39.393Z,38.17
2019-02-19T07:13:07.420Z,32.20
2019-02-19T07:15:35.492Z,34.70
2019-02-19T07:18:03.529Z,31.83
2019-02-19T07:20:31.196Z,31.87
2019-02-19T07:22:59.525Z,28.03
2019-02-19T07:25:27.949Z,35.30
2019-02-19T07:27:56.288Z,36.77
2019-02-19T07:30:24.517Z,34.07
2019-02-19T07:32:52.782Z,34.90
2019-02-19T07:35:21.375Z,39.20
2019-02-19T07:37:49.660Z,38.77
2019-02-19T07:40:17.995Z,36.23
2019-02-19T07:42:45.644Z,41.23
2019-02-19T07:45:13.440Z,37.90
2019-02-19T07:47:41.482Z,41.63
2019-02-19T07:50:09.205Z,39.83
2019-02-19T07:52:37.453Z,39.23
2019-02-19T07:55:05.234Z,42.50
2019-02-19T07:57:32.911Z,37.40
2019-02-19T08:00:00.666Z,37.10
2019-02-19T08:02:28.338Z,42.23
2019-02-19T08:04:56.001Z,45.20
2019-02-19T08:07:23.998Z,44.30
2019-02-19T08:09:51.994Z,47.23
2019-02-19T08:12:20.361Z,38.27
2019-02-19T08:14:48.289Z,37.43
2019-02-19T08:17:16.330Z,35.13
2019-02-19T08:19:44.505Z,38.00
2019-02-19T08:22:12.768Z,39.77
2019-02-19T08:24:41.152Z,44.30
2019-02-19T08:27:09.126Z,31.60
2019-02-19T08:29:37.093Z,36.30
2019-02-19T08:32:05.467Z,28.60
2019-02-19T08:34:33.394Z,31.17
2019-02-19T08:37:01.061Z,27.27
2019-02-19T08:39:28.729Z,29.73
2019-02-19T08:41:57.093Z,25.53
2019-02-19T08:44:25.217Z,27.87
2019-02-19T08:46:53.267Z,29.53
2019-02-19T08:49:21.241Z,27.33
2019-02-19T08:51:55.855Z,29.00
2019-02-19T08:54:19.093Z,27.10
2019-02-19T08:56:47.438Z,25.30
2019-02-19T08:59:15.103Z,26.70
2019-02-19T09:01:42.775Z,26.10
2019-02-19T09:04:10.740Z,30.10
2019-02-19T09:06:38.685Z,25.83
2019-02-19T09:09:06.672Z,23.73
2019-02-19T09:11:34.361Z,34.87
2019-02-19T09:14:02.697Z,27.70
2019-02-19T09:16:30.433Z,25.07
2019-02-19T09:18:58.115Z,26.60
2019-02-19T09:21:26.465Z,26.93
2019-02-19T09:23:55.069Z,41.50
2019-02-19T09:26:23.100Z,24.50
2019-02-19T09:28:51.112Z,22.33
2019-02-19T09:31:19.498Z,23.37
2019-02-19T09:33:47.770Z,22.10
2019-02-19T09:36:16.105Z,22.50
2019-02-19T09:38:44.426Z,28.00
2019-02-19T09:41:12.441Z,27.13
2019-02-19T09:43:40.777Z,25.23
2019-02-19T09:46:08.885Z,26.37
2019-02-19T09:48:36.890Z,23.00
2019-02-19T09:51:05.193Z,24.17
2019-02-19T09:53:33.241Z,23.17
2019-02-19T09:56:01.201Z,23.13
2019-02-19T09:58:28.893Z,20.07
2019-02-19T10:00:56.967Z,19.37
2019-02-19T10:03:25.105Z,20.77
2019-02-19T10:05:52.757Z,21.90
2019-02-19T10:08:20.710Z,21.43
2019-02-19T10:10:48.643Z,22.07
2019-02-19T10:13:16.702Z,24.63
2019-02-19T10:15:44.994Z,22.20
2019-02-19T10:18:13.565Z,16.17
2019-02-19T10:20:41.654Z,18.43
2019-02-19T10:23:10.049Z,15.70
2019-02-19T10:25:38.013Z,15.93
2019-02-19T10:28:05.744Z,18.33
2019-02-19T10:30:33.726Z,18.63
2019-02-19T10:33:01.772Z,14.87
2019-02-19T10:35:29.778Z,14.70
2019-02-19T10:37:57.434Z,10.13
2019-02-19T10:40:25.097Z,10.77
2019-02-19T10:42:53.065Z,10.63
2019-02-19T10:45:20.757Z,9.20
2019-02-19T10:47:49.001Z,10.40
2019-02-19T10:50:17.049Z,10.67
2019-02-19T10:52:45.161Z,9.10
2019-02-19T10:55:13.196Z,11.47
2019-02-19T10:57:41.450Z,9.63
2019-02-19T11:00:12.093Z,9.53
2019-02-19T11:02:40.309Z,7.40
2019-02-19T11:05:08.285Z,7.87
2019-02-19T11:07:36.206Z,8.10
2019-02-19T11:10:04.201Z,9.47
2019-02-19T11:12:32.400Z,6.03
2019-02-19T11:15:00.657Z,8.57
2019-02-19T11:17:28.399Z,7.47
2019-02-19T11:19:57.206Z,8.20
2019-02-19T11:22:26.000Z,9.03
2019-02-19T11:24:53.746Z,7.57
2019-02-19T11:27:21.417Z,9.00
2019-02-19T11:29:49.558Z,5.97
2019-02-19T11:32:18.054Z,9.33
2019-02-19T11:34:46.358Z,8.80
2019-02-19T11:37:14.024Z,6.80
2019-02-19T11:39:42.156Z,10.83
2019-02-19T11:42:10.493Z,8.60
2019-02-19T11:44:38.738Z,10.90
2019-02-19T11:47:06.862Z,7.07
2019-02-19T11:49:34.621Z,7.83
2019-02-19T11:52:02.281Z,12.87
2019-02-19T11:54:30.652Z,5.90
2019-02-19T11:56:59.197Z,8.07
2019-02-19T11:59:27.170Z,9.10
2019-02-19T12:01:55.493Z,7.30
2019-02-19T12:04:23.423Z,8.70
2019-02-19T12:06:51.085Z,9.47
2019-02-19T12:09:19.665Z,10.43
2019-02-19T12:11:48.052Z,8.30
2019-02-19T12:14:15.980Z,7.17
2019-02-19T12:16:43.925Z,10.10
2019-02-19T12:19:11.945Z,9.27
2019-02-19T12:21:39.636Z,7.97
2019-02-19T12:24:07.805Z,5.57
2019-02-19T12:26:35.769Z,5.77
2019-02-19T12:29:03.767Z,2.30
2019-02-19T12:31:32.415Z,4.87
2019-02-19T12:34:00.985Z,5.53
2019-02-19T12:36:28.672Z,6.03
2019-02-19T12:38:56.869Z,4.63
2019-02-19T12:41:25.428Z,4.30
2019-02-19T12:43:54.002Z,5.80
2019-02-19T12:46:22.045Z,3.70
2019-02-19T12:48:54.711Z,3.93
2019-02-19T12:51:26.240Z,3.83
2019-02-19T12:53:49.793Z,4.30
2019-02-19T12:56:17.730Z,4.87
2019-02-19T12:58:46.047Z,4.53
2019-02-19T13:01:16.007Z,6.17
2019-02-19T13:03:43.997Z,9.17
2019-02-19T13:06:12.426Z,4.23
2019-02-19T13:08:40.079Z,4.20
2019-02-19T13:11:08.089Z,5.63
2019-02-19T13:13:35.865Z,4.70
2019-02-19T13:16:04.149Z,6.30
2019-02-19T13:18:32.443Z,2.60
2019-02-19T13:21:00.774Z,4.60
2019-02-19T13:23:28.729Z,4.40
2019-02-19T13:25:56.749Z,2.63
2019-02-19T13:28:24.774Z,3.90
2019-02-19T13:30:53.068Z,8.03
2019-02-19T13:33:21.358Z,3.00
2019-02-19T13:35:50.721Z,4.50
2019-02-19T13:38:18.486Z,4.03
2019-02-19T13:40:46.457Z,8.03
2019-02-19T13:43:15.094Z,5.03
2019-02-19T13:45:43.469Z,2.17
2019-02-19T13:48:11.497Z,3.27
2019-02-19T13:50:39.744Z,7.57
2019-02-19T13:53:14.517Z,1.90
2019-02-19T13:55:45.808Z,6.57
2019-02-19T13:58:13.761Z,2.47
2019-02-19T14:00:42.738Z,5.80
2019-02-19T14:03:10.789Z,4.03
2019-02-19T14:05:39.019Z,8.47
2019-02-19T14:08:14.269Z,7.47
2019-02-19T14:10:36.357Z,2.80
2019-02-19T14:13:04.097Z,3.97
2019-02-19T14:16:00.578Z,5.77
2019-02-19T14:18:47.953Z,5.00
2019-02-19T14:21:50.469Z,9.40
2019-02-19T14:24:34.206Z,3.53
2019-02-19T14:27:27.579Z,2.03
2019-02-19T14:30:26.344Z,4.73
2019-02-19T14:33:13.401Z,3.07
2019-02-19T14:35:51.631Z,5.10
2019-02-19T14:38:51.426Z,2.73
2019-02-19T14:41:37.827Z,7.10
2019-02-19T14:44:30.806Z,4.63
2019-02-19T14:47:23.816Z,4.10
2019-02-19T14:50:16.449Z,3.93
2019-02-19T14:53:06.548Z,5.33
2019-02-19T14:55:54.693Z,5.40
2019-02-19T14:58:48.079Z,8.10
2019-02-19T15:01:47.135Z,4.20
2019-02-19T15:04:43.566Z,6.93
2019-02-19T15:07:30.617Z,3.63
2019-02-19T15:10:32.772Z,7.07
2019-02-19T15:13:05.477Z,5.53
2019-02-19T15:15:55.674Z,3.80
2019-02-19T15:18:41.079Z,6.00
2019-02-19T15:21:16.485Z,8.07
2019-02-19T15:24:03.606Z,1.90
2019-02-19T15:26:54.661Z,2.77
2019-02-19T15:29:33.831Z,5.10
2019-02-19T15:32:20.609Z,5.80
2019-02-19T15:34:55.219Z,4.30
2019-02-19T15:37:29.083Z,4.07
2019-02-19T15:40:14.924Z,5.30
2019-02-19T15:43:04.737Z,4.33
2019-02-19T15:46:07.154Z,6.27
2019-02-19T15:49:03.325Z,10.40
2019-02-19T15:51:37.137Z,4.87
2019-02-19T15:54:39.090Z,3.83
2019-02-19T15:57:16.929Z,5.73
2019-02-19T16:00:01.498Z,6.33
2019-02-19T16:02:44.518Z,7.97
2019-02-19T16:05:43.951Z,3.83
2019-02-19T16:08:22.388Z,4.37
2019-02-19T16:11:15.376Z,5.57
2019-02-19T16:13:59.328Z,5.40
2019-02-19T16:16:55.272Z,3.73
2019-02-19T16:19:28.817Z,7.00
2019-02-19T16:22:15.498Z,2.70
2019-02-19T16:25:14.346Z,3.10
2019-02-19T16:27:58.413Z,7.80
2019-02-19T16:30:45.835Z,9.63
2019-02-19T16:33:34.195Z,5.03
2019-02-19T16:36:21.321Z,6.77
2019-02-19T16:39:27.048Z,5.60
2019-02-19T16:42:02.521Z,5.83
2019-02-19T16:44:48.811Z,5.83
2019-02-19T16:47:32.277Z,9.23
2019-02-19T16:50:08.019Z,6.00
2019-02-19T16:52:55.725Z,5.43
2019-02-19T16:55:45.918Z,4.17
2019-02-19T16:58:48.685Z,7.07
2019-02-19T17:01:50.861Z,5.90
2019-02-19T17:04:25.317Z,7.23
2019-02-19T17:10:08.555Z,7.93
2019-02-19T17:12:53.333Z,4.30
2019-02-19T17:15:42.091Z,9.43
2019-02-19T17:18:47.562Z,4.80
2019-02-19T17:21:32.840Z,5.47
2019-02-19T17:24:16.295Z,4.80
2019-02-19T17:27:01.798Z,4.47
2019-02-19T17:29:45.005Z,7.90
2019-02-19T17:32:30.389Z,3.53
2019-02-19T17:35:11.128Z,6.97
2019-02-19T17:37:51.829Z,9.37
2019-02-19T17:40:34.846Z,3.73
2019-02-19T17:43:31.080Z,7.23
2019-02-19T17:46:21.478Z,5.17
2019-02-19T17:49:00.609Z,4.43
2019-02-19T17:51:53.841Z,6.10
2019-02-19T17:54:39.215Z,6.03
2019-02-19T17:57:22.060Z,6.70
2019-02-19T18:00:05.821Z,9.13
2019-02-19T18:05:44.139Z,6.03
2019-02-19T18:08:35.193Z,8.90
2019-02-19T18:11:37.177Z,7.90
2019-02-19T18:14:11.677Z,7.73
2019-02-19T18:16:48.623Z,10.80
2019-02-19T18:19:16.874Z,11.27
2019-02-19T18:21:48.648Z,10.07
2019-02-19T18:24:16.589Z,16.60
2019-02-19T18:26:44.856Z,9.70
2019-02-19T18:29:13.159Z,11.67
2019-02-19T18:31:41.329Z,6.47
2019-02-19T18:34:09.522Z,8.97
2019-02-19T18:36:37.439Z,6.30
2019-02-19T18:39:06.282Z,8.90
2019-02-19T18:41:34.254Z,8.60
2019-02-19T18:44:02.519Z,7.70
2019-02-19T18:46:30.431Z,6.17
2019-02-19T18:48:58.104Z,6.00
2019-02-19T18:51:26.021Z,3.03
2019-02-19T18:53:53.682Z,6.60
2019-02-19T18:56:21.949Z,8.90
2019-02-19T18:58:49.921Z,8.10
2019-02-19T19:01:18.408Z,4.17
2019-02-19T19:03:46.649Z,7.53
2019-02-19T19:06:15.946Z,4.93
2019-02-19T19:08:43.915Z,9.07
2019-02-19T19:11:12.194Z,3.83
2019-02-19T19:13:40.406Z,6.23
2019-02-19T19:16:08.892Z,4.80
2019-02-19T19:18:37.158Z,5.07
2019-02-19T19:21:07.834Z,3.70
2019-02-19T19:23:34.690Z,7.80
2019-02-19T19:26:02.704Z,3.43
2019-02-19T19:28:31.278Z,5.03
2019-02-19T19:30:59.225Z,4.17
2019-02-19T19:33:27.181Z,4.63
2019-02-19T19:35:55.796Z,5.23
2019-02-19T19:38:24.198Z,6.00
2019-02-19T19:40:51.934Z,2.93
2019-02-19T19:43:19.922Z,3.70
2019-02-19T19:45:48.164Z,7.23
2019-02-19T19:48:16.621Z,5.30
2019-02-19T19:50:44.555Z,4.00
2019-02-19T19:53:12.277Z,4.57
2019-02-19T19:55:40.241Z,5.70
2019-02-19T19:58:08.253Z,3.57
2019-02-19T20:00:36.288Z,6.40
2019-02-19T20:03:04.668Z,9.13
2019-02-19T20:05:33.286Z,13.80
2019-02-19T20:08:01.277Z,8.30
2019-02-19T20:10:29.639Z,5.47
2019-02-19T20:12:57.294Z,6.73
2019-02-19T20:15:25.568Z,9.90
2019-02-19T20:17:53.497Z,12.07
2019-02-19T20:20:21.712Z,7.87
2019-02-19T20:22:49.893Z,5.90
2019-02-19T20:25:18.128Z,4.20
2019-02-19T20:27:46.169Z,3.60
2019-02-19T20:30:14.110Z,6.10
2019-02-19T20:32:41.851Z,7.33
2019-02-19T20:35:09.505Z,8.13
2019-02-19T20:37:37.209Z,4.63
2019-02-19T20:40:05.010Z,6.30
2019-02-19T20:42:33.306Z,7.83
2019-02-19T20:45:00.958Z,6.13
2019-02-19T20:47:28.926Z,6.67
2019-02-19T20:49:56.575Z,4.07
2019-02-19T20:52:24.262Z,7.53
2019-02-19T20:54:52.453Z,4.50
2019-02-19T20:57:20.449Z,6.43
2019-02-19T20:59:48.914Z,5.37
2019-02-19T21:02:16.573Z,5.40
2019-02-19T21:04:44.513Z,4.97
2019-02-19T21:07:12.182Z,7.40
2019-02-19T21:09:43.684Z,4.17
2019-02-19T21:12:09.302Z,7.60
2019-02-19T21:14:37.342Z,6.77
2019-02-19T21:17:05.246Z,5.53
2019-02-19T21:19:33.783Z,3.40
2019-02-19T21:22:02.369Z,4.43
2019-02-19T21:24:30.571Z,6.33
2019-02-19T21:26:58.485Z,4.10
2019-02-19T21:29:26.416Z,10.43
2019-02-19T21:31:54.130Z,4.87
2019-02-19T21:34:21.921Z,6.70
2019-02-19T21:36:50.695Z,7.60
2019-02-19T21:39:18.458Z,7.43
2019-02-19T21:41:46.734Z,6.83
2019-02-19T21:44:14.772Z,9.17
2019-02-19T21:46:42.683Z,9.03
2019-02-19T21:49:11.165Z,9.30
2019-02-19T21:51:39.137Z,6.53
2019-02-19T21:54:07.419Z,5.67
2019-02-19T21:56:35.166Z,9.27
2019-02-19T21:59:03.081Z,6.50
2019-02-19T22:04:02.577Z,8.07
2019-02-19T22:06:30.836Z,7.73
2019-02-19T22:08:58.544Z,8.30
2019-02-19T22:11:26.781Z,5.77
2019-02-19T22:13:54.430Z,7.70
2019-02-19T22:16:22.090Z,6.63
2019-02-19T22:18:50.129Z,9.00
2019-02-19T22:21:37.224Z,12.57
2019-02-19T22:24:05.286Z,6.93
2019-02-19T22:26:33.370Z,7.67
2019-02-19T22:29:01.345Z,10.50
2019-02-19T22:31:29.456Z,6.30
2019-02-19T22:33:57.401Z,8.37
2019-02-19T22:36:25.728Z,11.20
2019-02-19T22:38:53.797Z,7.60
2019-02-19T22:41:22.050Z,6.67
2019-02-19T22:43:50.066Z,7.07
2019-02-19T22:46:18.111Z,11.07
2019-02-19T22:48:46.289Z,15.00
2019-02-19T22:51:14.309Z,14.17
2019-02-19T22:54:06.913Z,7.23
2019-02-19T22:56:40.430Z,7.63
2019-02-19T22:59:08.773Z,9.67
2019-02-19T23:01:42.084Z,10.37
2019-02-19T23:04:10.466Z,8.13
2019-02-19T23:06:38.493Z,6.33
2019-02-19T23:09:06.801Z,8.00
2019-02-19T23:11:35.073Z,10.93
2019-02-19T23:14:02.725Z,7.30
2019-02-19T23:16:30.928Z,11.27
2019-02-19T23:18:58.884Z,10.07
2019-02-19T23:21:27.279Z,9.73
2019-02-19T23:23:55.338Z,11.33
2019-02-19T23:26:23.268Z,12.03
2019-02-19T23:28:51.468Z,10.90
2019-02-19T23:31:19.402Z,7.87
2019-02-19T23:33:47.913Z,8.33
2019-02-19T23:36:29.753Z,8.30
2019-02-19T23:38:57.993Z,9.20
2019-02-19T23:41:25.999Z,10.90
2019-02-19T23:43:53.721Z,15.53
2019-02-19T23:46:21.665Z,9.17
2019-02-19T23:48:49.313Z,7.30
2019-02-19T23:51:17.640Z,8.23
2019-02-19T23:53:45.588Z,11.27
2019-02-19T23:56:13.629Z,7.27
2019-02-19T23:58:41.605Z,11.47
